createdAt,value
2022-09-16T00:00:56.302Z,100422.69
2022-09-16T00:03:24.157Z,100431.31
2022-09-16T00:05:53.416Z,100427.06
2022-09-16T00:08:22.667Z,100417.66
2022-09-16T00:10:51.124Z,100418.53
2022-09-16T00:13:19.710Z,100417.63
2022-09-16T00:15:50.690Z,100414.25
2022-09-16T00:18:21.346Z,100417.97
2022-09-16T00:20:51.348Z,100416.94
2022-09-16T00:23:20.425Z,100416.88
2022-09-16T00:25:51.892Z,100424.97
2022-09-16T00:28:20.056Z,100424.94
2022-09-16T00:30:47.819Z,100424.06
2022-09-16T00:33:15.609Z,100421.47
2022-09-16T00:35:44.952Z,100430.31
2022-09-16T00:38:12.695Z,100421.47
2022-09-16T00:40:46.286Z,100413.81
2022-09-16T00:43:15.016Z,100422.59
2022-09-16T00:45:45.109Z,100419.34
2022-09-16T00:48:17.898Z,100409.63
2022-09-16T00:50:51.438Z,100416.75
2022-09-16T00:53:24.140Z,100415.34
2022-09-16T00:55:54.474Z,100419.72
2022-09-16T00:58:26.050Z,100415.31
2022-09-16T01:00:53.829Z,100417.00
2022-09-16T01:03:22.044Z,100425.63
2022-09-16T01:05:51.518Z,100424.84
2022-09-16T01:08:19.326Z,100422.53
2022-09-16T01:10:47.074Z,100420.75
2022-09-16T01:13:16.632Z,100419.81
2022-09-16T01:15:55.722Z,100417.19
2022-09-16T01:18:31.812Z,100412.06
2022-09-16T01:21:18.991Z,100415.44
2022-09-16T01:24:17.321Z,100414.66
2022-09-16T01:27:00.307Z,100416.56
2022-09-16T01:29:41.673Z,100425.47
2022-09-16T01:32:16.178Z,100419.34
2022-09-16T01:34:52.756Z,100428.13
2022-09-16T01:37:30.149Z,100428.00
2022-09-16T01:40:06.656Z,100425.47
2022-09-16T01:42:41.490Z,100424.66
2022-09-16T01:45:18.116Z,100417.69
2022-09-16T01:47:58.006Z,100415.81
2022-09-16T01:50:31.112Z,100420.09
2022-09-16T01:53:09.890Z,100408.84
2022-09-16T01:55:42.090Z,100412.50
2022-09-16T01:58:17.703Z,100414.25
2022-09-16T02:00:46.182Z,100405.53
2022-09-16T02:03:20.297Z,100408.25
2022-09-16T02:05:52.350Z,100407.47
2022-09-16T02:08:33.323Z,100405.03
2022-09-16T02:11:06.763Z,100399.91
2022-09-16T02:13:36.908Z,100405.03
2022-09-16T02:16:11.158Z,100401.38
2022-09-16T02:18:43.074Z,100394.34
2022-09-16T02:21:15.372Z,100398.72
2022-09-16T02:23:47.520Z,100392.66
2022-09-16T02:26:19.779Z,100398.84
2022-09-16T02:28:51.663Z,100395.31
2022-09-16T02:31:22.867Z,100400.56
2022-09-16T02:33:56.999Z,100390.97
2022-09-16T02:36:27.822Z,100397.44
2022-09-16T02:39:01.858Z,100399.97
2022-09-16T02:41:29.747Z,100399.13
2022-09-16T02:43:57.630Z,100391.28
2022-09-16T02:46:31.269Z,100395.72
2022-09-16T02:49:10.746Z,100399.13
2022-09-16T02:51:48.565Z,100400.88
2022-09-16T02:54:24.919Z,100389.69
2022-09-16T02:56:52.795Z,100387.75
2022-09-16T02:59:20.568Z,100386.09
2022-09-16T03:01:48.383Z,100387.88
2022-09-16T03:04:20.092Z,100388.75
2022-09-16T03:06:48.866Z,100382.53
2022-09-16T03:09:19.062Z,100380.00
2022-09-16T03:12:00.578Z,100390.31
2022-09-16T03:14:44.095Z,100387.59
2022-09-16T03:17:25.626Z,100383.84
2022-09-16T03:20:05.304Z,100393.69
2022-09-16T03:22:48.475Z,100392.69
2022-09-16T03:25:29.830Z,100386.44
2022-09-16T03:28:03.459Z,100384.63
2022-09-16T03:30:37.134Z,100380.38
2022-09-16T03:33:14.957Z,100381.19
2022-09-16T03:35:48.425Z,100380.38
2022-09-16T03:38:18.137Z,100384.81
2022-09-16T03:40:48.434Z,100383.09
2022-09-16T03:43:17.220Z,100368.41
2022-09-16T03:45:45.118Z,100367.41
2022-09-16T03:48:14.339Z,100370.16
2022-09-16T03:50:42.087Z,100362.41
2022-09-16T03:53:11.218Z,100365.09
2022-09-16T03:55:38.949Z,100364.91
2022-09-16T03:58:06.705Z,100364.13
2022-09-16T04:00:34.673Z,100361.41
2022-09-16T04:03:02.450Z,100371.91
2022-09-16T04:05:30.900Z,100368.41
2022-09-16T04:07:59.090Z,100363.88
2022-09-16T04:10:28.256Z,100356.91
2022-09-16T04:12:58.731Z,100361.97
2022-09-16T04:15:26.539Z,100364.47
2022-09-16T04:17:56.165Z,100361.25
2022-09-16T04:20:24.065Z,100358.56
2022-09-16T04:22:51.789Z,100356.75
2022-09-16T04:25:19.512Z,100355.94
2022-09-16T04:27:48.655Z,100356.09
2022-09-16T04:30:16.406Z,100362.19
2022-09-16T04:32:44.149Z,100351.91
2022-09-16T04:35:11.868Z,100349.44
2022-09-16T04:37:39.634Z,100358.19
2022-09-16T04:40:08.136Z,100352.19
2022-09-16T04:42:36.218Z,100353.09
2022-09-16T04:45:06.333Z,100351.31
2022-09-16T04:47:34.306Z,100353.97
2022-09-16T04:50:02.044Z,100351.22
2022-09-16T04:52:31.420Z,100354.91
2022-09-16T04:54:59.136Z,100356.69
2022-09-16T04:57:26.852Z,100356.03
2022-09-16T04:59:54.594Z,100360.47
2022-09-16T05:02:23.680Z,100366.63
2022-09-16T05:04:51.448Z,100369.31
2022-09-16T05:07:19.213Z,100365.06
2022-09-16T05:09:47.128Z,100360.19
2022-09-16T05:12:15.121Z,100372.53
2022-09-16T05:14:42.835Z,100372.75
2022-09-16T05:17:10.551Z,100366.63
2022-09-16T05:19:39.694Z,100366.63
2022-09-16T05:22:07.457Z,100371.16
2022-09-16T05:24:36.406Z,100371.06
2022-09-16T05:27:04.479Z,100368.47
2022-09-16T05:29:32.333Z,100367.47
2022-09-16T05:32:00.829Z,100372.63
2022-09-16T05:34:28.689Z,100370.66
2022-09-16T05:36:58.602Z,100361.06
2022-09-16T05:39:26.809Z,100374.19
2022-09-16T05:41:56.563Z,100367.84
2022-09-16T05:44:24.371Z,100375.91
2022-09-16T05:46:52.157Z,100364.19
2022-09-16T05:49:20.894Z,100375.56
2022-09-16T05:51:49.793Z,100370.00
2022-09-16T05:54:19.895Z,100371.53
2022-09-16T05:56:48.517Z,100374.03
2022-09-16T05:59:17.777Z,100388.44
2022-09-16T06:01:45.859Z,100376.94
2022-09-16T06:04:16.541Z,100380.75
2022-09-16T06:06:45.370Z,100376.94
2022-09-16T06:09:15.789Z,100380.22
2022-09-16T06:11:47.608Z,100377.63
2022-09-16T06:14:16.348Z,100378.41
2022-09-16T06:16:44.565Z,100379.47
2022-09-16T06:19:14.342Z,100384.47
2022-09-16T06:21:43.627Z,100379.94
2022-09-16T06:24:12.673Z,100378.34
2022-09-16T06:26:42.816Z,100372.31
2022-09-16T06:29:12.876Z,100371.34
2022-09-16T06:31:40.941Z,100374.19
2022-09-16T06:34:12.989Z,100368.50
2022-09-16T06:36:44.808Z,100357.63
2022-09-16T06:39:14.235Z,100366.09
2022-09-16T06:41:42.112Z,100376.00
2022-09-16T06:44:10.044Z,100367.84
2022-09-16T06:46:39.412Z,100365.69
2022-09-16T06:49:07.153Z,100366.88
2022-09-16T06:51:37.134Z,100364.69
2022-09-16T06:54:07.916Z,100365.81
2022-09-16T06:56:39.073Z,100370.63
2022-09-16T06:59:07.266Z,100367.88
2022-09-16T07:01:35.579Z,100364.38
2022-09-16T07:04:07.468Z,100365.47
2022-09-16T07:07:05.222Z,100370.41
2022-09-16T07:09:23.424Z,100368.84
2022-09-16T07:11:51.153Z,100363.53
2022-09-16T07:14:18.949Z,100371.47
2022-09-16T07:16:46.798Z,100362.75
2022-09-16T07:19:15.892Z,100372.25
2022-09-16T07:21:43.627Z,100379.47
2022-09-16T07:24:13.543Z,100368.38
2022-09-16T07:26:43.144Z,100374.72
2022-09-16T07:29:12.753Z,100376.03
2022-09-16T07:31:40.571Z,100391.50
2022-09-16T07:34:10.494Z,100389.66
2022-09-16T07:36:41.587Z,100393.91
2022-09-16T07:39:10.873Z,100392.06
2022-09-16T07:41:41.235Z,100387.88
2022-09-16T07:44:12.175Z,100389.38
2022-09-16T07:46:40.370Z,100391.69
2022-09-16T07:49:10.135Z,100394.72
2022-09-16T07:51:39.116Z,100397.34
2022-09-16T07:54:09.573Z,100396.88
2022-09-16T07:56:39.546Z,100392.22
2022-09-16T07:59:11.042Z,100398.53
2022-09-16T08:01:43.364Z,100389.72
2022-09-16T08:04:12.237Z,100396.34
2022-09-16T08:06:41.766Z,100400.53
2022-09-16T08:09:36.849Z,100394.00
2022-09-16T08:11:57.194Z,100405.03
2022-09-16T08:14:25.191Z,100399.75
2022-09-16T08:16:52.968Z,100403.09
2022-09-16T08:19:22.488Z,100410.16
2022-09-16T08:21:52.630Z,100419.91
2022-09-16T08:24:20.598Z,100418.66
2022-09-16T08:26:48.370Z,100416.44
2022-09-16T08:29:16.538Z,100421.34
2022-09-16T08:31:44.661Z,100427.31
2022-09-16T08:34:12.494Z,100421.84
2022-09-16T08:36:40.303Z,100426.31
2022-09-16T08:39:11.275Z,100417.81
2022-09-16T08:42:00.122Z,100414.00
2022-09-16T08:44:36.678Z,100423.91
2022-09-16T08:47:10.100Z,100429.88
2022-09-16T08:49:44.174Z,100416.94
2022-09-16T08:52:19.700Z,100431.59
2022-09-16T08:54:52.799Z,100424.19
2022-09-16T08:57:23.335Z,100423.50
2022-09-16T08:59:58.711Z,100425.41
2022-09-16T09:02:35.103Z,100427.72
2022-09-16T09:05:04.417Z,100431.69
2022-09-16T09:07:46.297Z,100425.81
2022-09-16T09:10:26.546Z,100433.16
2022-09-16T09:13:01.324Z,100438.97
2022-09-16T09:15:35.409Z,100434.81
2022-09-16T09:18:24.194Z,100438.22
2022-09-16T09:20:59.940Z,100442.22
2022-09-16T09:23:50.602Z,100428.38
2022-09-16T09:26:23.031Z,100441.69
2022-09-16T09:29:11.840Z,100429.66
2022-09-16T09:31:48.245Z,100432.94
2022-09-16T09:34:34.957Z,100443.41
2022-09-16T09:37:19.399Z,100431.81
2022-09-16T09:40:07.345Z,100424.41
2022-09-16T09:42:41.577Z,100423.31
2022-09-16T09:45:20.277Z,100416.97
2022-09-16T09:47:52.127Z,100426.09
2022-09-16T09:50:24.876Z,100420.22
2022-09-16T09:52:59.905Z,100417.72
2022-09-16T09:55:32.572Z,100424.16
2022-09-16T09:58:17.798Z,100412.53
2022-09-16T10:00:45.858Z,100416.75
2022-09-16T10:03:16.481Z,100411.00
2022-09-16T10:05:46.349Z,100411.59
2022-09-16T10:08:20.325Z,100412.78
2022-09-16T10:10:51.414Z,100415.59
2022-09-16T10:13:21.952Z,100421.22
2022-09-16T10:15:54.810Z,100412.69
2022-09-16T10:18:27.400Z,100420.53
2022-09-16T10:21:05.524Z,100413.75
2022-09-16T10:23:34.388Z,100421.94
2022-09-16T10:26:19.247Z,100420.41
2022-09-16T10:28:58.716Z,100416.38
2022-09-16T10:31:33.695Z,100415.53
2022-09-16T10:34:04.096Z,100410.69
2022-09-16T10:36:35.920Z,100413.34
2022-09-16T10:39:05.943Z,100413.88
2022-09-16T10:41:36.122Z,100420.81
2022-09-16T10:44:17.170Z,100409.59
2022-09-16T10:46:52.625Z,100417.75
2022-09-16T10:49:21.745Z,100405.44
2022-09-16T10:51:49.565Z,100406.72
2022-09-16T10:54:25.935Z,100398.84
2022-09-16T10:56:53.748Z,100392.25
2022-09-16T10:59:23.017Z,100394.91
2022-09-16T11:02:02.477Z,100397.66
2022-09-16T11:04:48.340Z,100395.16
2022-09-16T11:07:28.890Z,100391.81
2022-09-16T11:10:06.001Z,100396.13
2022-09-16T11:13:09.968Z,100395.03
2022-09-16T11:15:53.422Z,100394.97
2022-09-16T11:18:37.383Z,100391.03
2022-09-16T11:21:26.891Z,100390.66
2022-09-16T11:24:09.294Z,100391.22
2022-09-16T11:26:46.395Z,100392.91
2022-09-16T11:29:27.285Z,100395.19
2022-09-16T11:32:04.214Z,100391.16
2022-09-16T11:34:44.694Z,100383.88
2022-09-16T11:37:22.667Z,100380.41
2022-09-16T11:40:04.030Z,100378.75
2022-09-16T11:42:35.843Z,100387.84
2022-09-16T11:45:17.517Z,100379.13
2022-09-16T11:48:04.600Z,100380.53
2022-09-16T11:50:43.826Z,100374.31
2022-09-16T11:53:39.697Z,100383.66
2022-09-16T11:56:14.416Z,100384.25
2022-09-16T11:58:47.670Z,100375.28
2022-09-16T12:01:29.027Z,100369.31
2022-09-16T12:04:04.340Z,100388.81
2022-09-16T12:06:39.367Z,100367.69
2022-09-16T12:09:13.375Z,100370.72
2022-09-16T12:11:46.590Z,100382.28
2022-09-16T12:14:18.588Z,100381.72
2022-09-16T12:16:51.353Z,100369.59
2022-09-16T12:19:24.274Z,100370.22
2022-09-16T12:21:57.930Z,100361.22
2022-09-16T12:24:32.267Z,100362.75
2022-09-16T12:27:07.011Z,100372.59
2022-09-16T12:29:42.056Z,100372.88
2022-09-16T12:32:12.206Z,100383.13
2022-09-16T12:34:45.331Z,100395.31
2022-09-16T12:37:23.824Z,100410.28
2022-09-16T12:39:51.880Z,100414.19
2022-09-16T12:42:50.230Z,100428.72
2022-09-16T12:45:35.605Z,100438.22
2022-09-16T12:48:25.448Z,100449.38
2022-09-16T12:51:22.678Z,100461.06
2022-09-16T12:54:16.385Z,100460.88
2022-09-16T12:57:19.920Z,100474.22
2022-09-16T13:00:00.119Z,100478.50
2022-09-16T13:02:34.144Z,100478.25
2022-09-16T13:05:14.326Z,100489.75
2022-09-16T13:07:43.606Z,100493.03
2022-09-16T13:10:26.423Z,100491.72
2022-09-16T13:13:05.583Z,100494.16
2022-09-16T13:15:35.185Z,100491.91
2022-09-16T13:18:09.936Z,100484.63
2022-09-16T13:20:42.235Z,100479.78
2022-09-16T13:23:18.095Z,100476.16
2022-09-16T13:25:51.157Z,100471.72
2022-09-16T13:28:28.176Z,100463.16
2022-09-16T13:30:56.316Z,100469.63
2022-09-16T13:33:28.979Z,100467.44
2022-09-16T13:36:29.671Z,100474.63
2022-09-16T13:39:00.493Z,100476.25
2022-09-16T13:41:35.112Z,100467.59
2022-09-16T13:44:04.943Z,100467.47
2022-09-16T13:46:35.814Z,100468.66
2022-09-16T13:49:28.232Z,100466.28
2022-09-16T13:51:56.237Z,100456.03
2022-09-16T13:54:30.060Z,100469.06
2022-09-16T13:57:22.075Z,100469.28
2022-09-16T14:00:05.985Z,100467.56
2022-09-16T14:02:51.085Z,100468.41
2022-09-16T14:05:33.539Z,100475.66
2022-09-16T14:08:09.635Z,100480.53
2022-09-16T14:10:46.840Z,100476.66
2022-09-16T14:13:17.106Z,100479.34
2022-09-16T14:15:49.293Z,100479.28
2022-09-16T14:18:19.811Z,100473.13
2022-09-16T14:21:00.360Z,100483.34
2022-09-16T14:23:28.958Z,100479.13
2022-09-16T14:26:10.232Z,100483.13
2022-09-16T14:28:39.414Z,100473.78
2022-09-16T14:31:09.902Z,100462.19
2022-09-16T14:33:41.159Z,100462.41
2022-09-16T14:36:13.457Z,100467.72
2022-09-16T14:38:46.587Z,100461.56
2022-09-16T14:41:24.164Z,100454.66
2022-09-16T14:43:52.907Z,100459.41
2022-09-16T14:46:20.786Z,100452.41
2022-09-16T14:48:49.523Z,100442.41
2022-09-16T14:51:22.966Z,100442.91
2022-09-16T14:54:14.047Z,100441.53
2022-09-16T14:56:43.349Z,100431.19
2022-09-16T14:59:13.801Z,100431.44
2022-09-16T15:01:42.730Z,100427.00
2022-09-16T15:04:18.346Z,100428.44
2022-09-16T15:06:52.724Z,100430.38
2022-09-16T15:09:27.511Z,100432.41
2022-09-16T15:12:00.401Z,100441.91
2022-09-16T15:14:28.947Z,100436.84
2022-09-16T15:17:01.092Z,100435.25
2022-09-16T15:19:34.252Z,100437.13
2022-09-16T15:22:02.771Z,100434.28
2022-09-16T15:24:33.307Z,100441.84
2022-09-16T15:27:03.657Z,100442.19
2022-09-16T15:29:34.068Z,100440.63
2022-09-16T15:32:17.969Z,100439.25
2022-09-16T15:34:46.289Z,100438.25
2022-09-16T15:37:32.287Z,100441.16
2022-09-16T15:40:33.638Z,100423.41
2022-09-16T15:43:21.846Z,100429.50
2022-09-16T15:46:00.014Z,100431.75
2022-09-16T15:48:32.156Z,100424.66
2022-09-16T15:51:05.090Z,100429.47
2022-09-16T15:53:48.379Z,100424.56
2022-09-16T15:56:26.541Z,100430.84
2022-09-16T15:58:58.966Z,100428.66
2022-09-16T16:01:40.547Z,100425.50
2022-09-16T16:04:11.773Z,100430.84
2022-09-16T16:06:49.283Z,100425.75
2022-09-16T16:09:44.054Z,100429.75
2022-09-16T16:12:14.384Z,100430.59
2022-09-16T16:14:44.324Z,100426.88
2022-09-16T16:17:14.760Z,100436.03
2022-09-16T16:19:43.623Z,100431.50
2022-09-16T16:22:12.241Z,100438.25
2022-09-16T16:24:40.222Z,100444.91
2022-09-16T16:27:08.501Z,100442.06
2022-09-16T16:29:36.293Z,100459.84
2022-09-16T16:32:10.436Z,100446.66
2022-09-16T16:34:40.439Z,100455.50
2022-09-16T16:37:09.692Z,100458.41
2022-09-16T16:39:37.893Z,100463.13
2022-09-16T16:42:06.737Z,100456.81
2022-09-16T16:44:34.822Z,100458.88
2022-09-16T16:47:02.857Z,100465.59
2022-09-16T16:49:32.314Z,100461.56
2022-09-16T16:52:00.036Z,100461.94
2022-09-16T16:54:28.895Z,100459.44
2022-09-16T16:56:58.730Z,100466.72
2022-09-16T16:59:27.521Z,100463.53
2022-09-16T17:01:56.926Z,100466.09
2022-09-16T17:04:26.105Z,100472.56
2022-09-16T17:07:21.414Z,100472.94
2022-09-16T17:09:43.053Z,100465.16
2022-09-16T17:12:10.766Z,100466.59
2022-09-16T17:14:38.722Z,100480.03
2022-09-16T17:17:06.514Z,100481.63
2022-09-16T17:19:34.273Z,100477.22
2022-09-16T17:22:03.422Z,100473.66
2022-09-16T17:24:31.293Z,100477.97
2022-09-16T17:26:59.136Z,100474.78
2022-09-16T17:29:26.903Z,100483.31
2022-09-16T17:31:56.819Z,100487.19
2022-09-16T17:34:26.237Z,100485.53
2022-09-16T17:36:54.786Z,100488.44
2022-09-16T17:39:24.119Z,100487.50
2022-09-16T17:41:52.062Z,100494.66
2022-09-16T17:44:20.482Z,100488.06
2022-09-16T17:46:48.480Z,100500.91
2022-09-16T17:49:18.151Z,100491.25
2022-09-16T17:51:45.934Z,100496.28
2022-09-16T17:54:14.000Z,100494.38
2022-09-16T17:56:43.958Z,100491.28
2022-09-16T17:59:12.916Z,100498.97
2022-09-16T18:01:40.781Z,100490.59
2022-09-16T18:04:08.811Z,100491.88
2022-09-16T18:06:51.495Z,100492.13
2022-09-16T18:09:19.345Z,100490.25
2022-09-16T18:11:48.713Z,100496.53
2022-09-16T18:14:20.135Z,100500.94
2022-09-16T18:16:50.764Z,100502.72
2022-09-16T18:19:18.525Z,100504.72
2022-09-16T18:21:46.275Z,100505.66
2022-09-16T18:24:14.209Z,100502.25
2022-09-16T18:26:45.151Z,100510.16
2022-09-16T18:29:15.136Z,100511.13
2022-09-16T18:31:47.359Z,100513.66
2022-09-16T18:34:16.825Z,100516.50
2022-09-16T18:36:44.814Z,100516.31
2022-09-16T18:39:15.133Z,100511.16
2022-09-16T18:41:44.286Z,100513.97
2022-09-16T18:44:15.711Z,100515.72
2022-09-16T18:46:43.915Z,100516.97
2022-09-16T18:49:13.519Z,100516.91
2022-09-16T18:51:46.096Z,100525.69
2022-09-16T18:54:19.360Z,100521.38
2022-09-16T18:56:47.213Z,100525.63
2022-09-16T18:59:22.025Z,100522.16
2022-09-16T19:01:52.615Z,100519.03
2022-09-16T19:04:22.782Z,100519.13
2022-09-16T19:06:52.959Z,100516.56
2022-09-16T19:09:22.248Z,100518.47
2022-09-16T19:11:50.492Z,100516.50
2022-09-16T19:14:22.313Z,100523.69
2022-09-16T19:16:50.150Z,100530.69
2022-09-16T19:19:17.841Z,100522.72
2022-09-16T19:21:45.541Z,100533.50
2022-09-16T19:24:16.385Z,100523.72
2022-09-16T19:26:45.356Z,100530.72
2022-09-16T19:29:14.731Z,100530.88
2022-09-16T19:31:45.763Z,100535.13
2022-09-16T19:34:15.444Z,100532.63
2022-09-16T19:36:44.245Z,100529.22
2022-09-16T19:39:13.250Z,100529.16
2022-09-16T19:41:42.432Z,100537.66
2022-09-16T19:44:13.052Z,100533.50
2022-09-16T19:46:44.622Z,100529.22
2022-09-16T19:49:16.852Z,100532.72
2022-09-16T19:51:44.757Z,100530.97
2022-09-16T19:54:13.014Z,100539.88
2022-09-16T19:56:41.025Z,100547.75
2022-09-16T19:59:08.887Z,100546.88
2022-09-16T20:01:37.902Z,100548.69
2022-09-16T20:04:09.035Z,100547.69
2022-09-16T20:06:38.787Z,100549.44
2022-09-16T20:09:11.410Z,100554.59
2022-09-16T20:11:41.544Z,100547.66
2022-09-16T20:14:14.413Z,100559.00
2022-09-16T20:16:43.064Z,100556.59
2022-09-16T20:19:14.438Z,100554.53
2022-09-16T20:21:42.822Z,100552.09
2022-09-16T20:24:15.615Z,100561.56
2022-09-16T20:26:43.633Z,100552.91
2022-09-16T20:29:11.395Z,100557.28
2022-09-16T20:31:39.518Z,100562.72
2022-09-16T20:34:07.430Z,100562.78
2022-09-16T20:36:39.975Z,100556.75
2022-09-16T20:39:08.866Z,100562.84
2022-09-16T20:41:38.122Z,100558.53
2022-09-16T20:44:06.560Z,100570.94
2022-09-16T20:46:36.597Z,100563.25
2022-09-16T20:49:06.663Z,100575.38
2022-09-16T20:51:35.599Z,100579.03
2022-09-16T20:54:07.759Z,100576.44
2022-09-16T20:56:38.820Z,100574.75
2022-09-16T20:59:08.784Z,100566.91
2022-09-16T21:01:38.168Z,100568.75
2022-09-16T21:04:07.545Z,100571.41
2022-09-16T21:06:36.398Z,100568.09
2022-09-16T21:09:07.353Z,100569.78
2022-09-16T21:11:35.562Z,100567.91
2022-09-16T21:14:06.726Z,100565.41
2022-09-16T21:16:36.266Z,100568.84
2022-09-16T21:19:09.163Z,100561.81
2022-09-16T21:21:38.608Z,100564.53
2022-09-16T21:24:09.718Z,100570.78
2022-09-16T21:26:39.232Z,100575.88
2022-09-16T21:29:10.997Z,100576.88
2022-09-16T21:31:40.598Z,100573.41
2022-09-16T21:34:12.457Z,100575.25
2022-09-16T21:36:40.898Z,100572.53
2022-09-16T21:39:09.994Z,100589.19
2022-09-16T21:41:38.501Z,100575.19
2022-09-16T21:44:06.616Z,100575.94
2022-09-16T21:46:39.454Z,100576.97
2022-09-16T21:49:07.836Z,100578.72
2022-09-16T21:51:38.271Z,100572.81
2022-09-16T21:54:08.024Z,100580.59
2022-09-16T21:56:40.288Z,100578.03
2022-09-16T21:59:08.890Z,100583.25
2022-09-16T22:01:38.105Z,100577.19
2022-09-16T22:04:07.936Z,100583.28
2022-09-16T22:06:35.923Z,100580.75
2022-09-16T22:09:07.652Z,100584.97
2022-09-16T22:11:40.516Z,100591.97
2022-09-16T22:14:10.757Z,100591.09
2022-09-16T22:16:39.783Z,100592.00
2022-09-16T22:19:09.694Z,100599.84
2022-09-16T22:21:41.482Z,100597.22
2022-09-16T22:24:09.921Z,100606.75
2022-09-16T22:26:39.789Z,100596.28
2022-09-16T22:29:09.320Z,100596.28
2022-09-16T22:31:38.849Z,100594.53
2022-09-16T22:34:06.910Z,100586.66
2022-09-16T22:36:36.188Z,100597.91
2022-09-16T22:39:07.024Z,100593.53
2022-09-16T22:41:35.449Z,100594.25
2022-09-16T22:44:05.212Z,100598.66
2022-09-16T22:46:39.872Z,100598.59
2022-09-16T22:49:08.010Z,100588.31
2022-09-16T22:51:35.978Z,100593.50
2022-09-16T22:54:03.751Z,100594.50
2022-09-16T22:56:33.907Z,100589.19
2022-09-16T22:59:06.326Z,100595.28
2022-09-16T23:01:36.339Z,100597.03
2022-09-16T23:04:05.557Z,100596.16
2022-09-16T23:06:34.852Z,100593.50
2022-09-16T23:09:02.960Z,100601.38
2022-09-16T23:11:32.506Z,100586.63
2022-09-16T23:14:01.384Z,100601.50
2022-09-16T23:16:32.759Z,100590.22
2022-09-16T23:19:03.133Z,100603.34
2022-09-16T23:21:31.579Z,100608.53
2022-09-16T23:24:02.003Z,100608.41
2022-09-16T23:26:31.564Z,100599.81
2022-09-16T23:29:00.943Z,100595.44
2022-09-16T23:31:31.834Z,100608.50
2022-09-16T23:34:00.928Z,100600.72
2022-09-16T23:36:29.545Z,100600.75
2022-09-16T23:38:57.389Z,100598.09
2022-09-16T23:41:27.235Z,100599.03
2022-09-16T23:43:56.675Z,100596.47
2022-09-16T23:46:26.051Z,100589.56
2022-09-16T23:48:55.350Z,100591.28
2022-09-16T23:51:28.262Z,100592.91
2022-09-16T23:53:57.514Z,100598.25
2022-09-16T23:56:25.355Z,100589.66
2022-09-16T23:58:53.421Z,100596.56
